<?xml version="1.0" encoding="UTF-8" standalone="no" ?>
<gpx xmlns="http://www.topografix.com/GPX/1/1" xmlns:xsi="http://www.w3.org/2001/XMLSchema-instance" xsi:schemaLocation="http://www.topografix.com/GPX/1/1 http://www.topografix.com/GPX/1/1/gpx.xsd" version="1.1" creator="VisuGPX - https://www.visugpx.com">
  <metadata>
    <name>jour 3_2_50km entre les 2 campings et avec PlopsaCoo</name>
    <desc><![CDATA[Dupliqué de [url]https://www.visugpx.com/5vCsbGBEPu[/url]]]></desc>
  </metadata>
  <wpt lat="50.40092" lon="5.93999">
    <ele>329.2</ele>
    <name><![CDATA[TUNNEL]]></name>
  </wpt>
  <wpt lat="50.37539" lon="5.87413">
    <ele>251.4</ele>
    <name><![CDATA[PASSERELLE SOUS PONT]]></name>
  </wpt>
  <wpt lat="50.37614" lon="5.87364">
    <ele>245.1</ele>
  </wpt>
  <trk>
    <name><![CDATA[jour 3_vtt_4_pays_50km direct entre les 2 campings]]></name>
    <extensions>
      <line xmlns="http://www.topografix.com/GPX/gpx_style/0/2">
        <color>00ffcc</color>
        <width>4</width>
      </line>
    </extensions>
    <trkseg>
      <trkpt lat="50.47453" lon="6.11088">
        <ele>603</ele>
        <time>2025-05-01T09:51:30Z</time>
      </trkpt>
      <trkpt lat="50.47466" lon="6.11122">
        <ele>601</ele>
        <time>2025-05-01T09:51:36Z</time>
      </trkpt>
      <trkpt lat="50.47431" lon="6.11166">
        <ele>602.5</ele>
        <time>2025-05-01T09:51:46Z</time>
      </trkpt>
      <trkpt lat="50.47527" lon="6.11265">
        <ele>597</ele>
        <time>2025-05-01T09:52:11Z</time>
      </trkpt>
      <trkpt lat="50.47424" lon="6.11353">
        <ele>598</ele>
        <time>2025-05-01T09:52:38Z</time>
      </trkpt>
      <trkpt lat="50.47283" lon="6.11517">
        <ele>594</ele>
        <time>2025-05-01T09:53:19Z</time>
      </trkpt>
      <trkpt lat="50.47261" lon="6.11557">
        <ele>592</ele>
        <time>2025-05-01T09:53:27Z</time>
      </trkpt>
      <trkpt lat="50.47226" lon="6.11613">
        <ele>590</ele>
        <time>2025-05-01T09:53:38Z</time>
      </trkpt>
      <trkpt lat="50.47134" lon="6.11706">
        <ele>586</ele>
        <time>2025-05-01T09:54:04Z</time>
      </trkpt>
      <trkpt lat="50.47034" lon="6.11823">
        <ele>581</ele>
        <time>2025-05-01T09:54:33Z</time>
      </trkpt>
      <trkpt lat="50.46976" lon="6.11923">
        <ele>575</ele>
        <time>2025-05-01T09:54:53Z</time>
      </trkpt>
      <trkpt lat="50.46923" lon="6.11996">
        <ele>570</ele>
        <time>2025-05-01T09:55:10Z</time>
      </trkpt>
      <trkpt lat="50.46866" lon="6.1208">
        <ele>562</ele>
        <time>2025-05-01T09:55:28Z</time>
      </trkpt>
      <trkpt lat="50.46824" lon="6.12201">
        <ele>560</ele>
        <time>2025-05-01T09:55:48Z</time>
      </trkpt>
      <trkpt lat="50.46743" lon="6.12354">
        <ele>566</ele>
        <time>2025-05-01T09:56:18Z</time>
      </trkpt>
      <trkpt lat="50.46662" lon="6.12429">
        <ele>567</ele>
        <time>2025-05-01T09:56:40Z</time>
      </trkpt>
      <trkpt lat="50.46581" lon="6.12521">
        <ele>562</ele>
        <time>2025-05-01T09:57:03Z</time>
      </trkpt>
      <trkpt lat="50.46551" lon="6.12644">
        <ele>558</ele>
        <time>2025-05-01T09:57:23Z</time>
      </trkpt>
      <trkpt lat="50.46565" lon="6.12681">
        <ele>559</ele>
        <time>2025-05-01T09:57:29Z</time>
      </trkpt>
      <trkpt lat="50.46598" lon="6.12726">
        <ele>562</ele>
        <time>2025-05-01T09:57:40Z</time>
      </trkpt>
      <trkpt lat="50.46544" lon="6.12771">
        <ele>558</ele>
        <time>2025-05-01T09:57:54Z</time>
      </trkpt>
      <trkpt lat="50.4649" lon="6.12825">
        <ele>554</ele>
        <time>2025-05-01T09:58:09Z</time>
      </trkpt>
      <trkpt lat="50.46407" lon="6.12857">
        <ele>550</ele>
        <time>2025-05-01T09:58:29Z</time>
      </trkpt>
      <trkpt lat="50.4642" lon="6.12963">
        <ele>553</ele>
        <time>2025-05-01T09:58:45Z</time>
      </trkpt>
      <trkpt lat="50.46442" lon="6.13003">
        <ele>555</ele>
        <time>2025-05-01T09:58:53Z</time>
      </trkpt>
      <trkpt lat="50.46502" lon="6.13026">
        <ele>559</ele>
        <time>2025-05-01T09:59:07Z</time>
      </trkpt>
      <trkpt lat="50.46554" lon="6.13036">
        <ele>562</ele>
        <time>2025-05-01T09:59:19Z</time>
      </trkpt>
      <trkpt lat="50.46404" lon="6.13277">
        <ele>554</ele>
        <time>2025-05-01T10:00:09Z</time>
      </trkpt>
      <trkpt lat="50.46392" lon="6.13275">
        <ele>554</ele>
        <time>2025-05-01T10:00:12Z</time>
      </trkpt>
      <trkpt lat="50.46385" lon="6.13286">
        <ele>554</ele>
        <time>2025-05-01T10:00:15Z</time>
      </trkpt>
      <trkpt lat="50.46388" lon="6.13304">
        <ele>554</ele>
        <time>2025-05-01T10:00:17Z</time>
      </trkpt>
      <trkpt lat="50.46306" lon="6.13434">
        <ele>551</ele>
        <time>2025-05-01T10:00:44Z</time>
      </trkpt>
      <trkpt lat="50.46273" lon="6.13494">
        <ele>548</ele>
        <time>2025-05-01T10:00:56Z</time>
      </trkpt>
      <trkpt lat="50.46131" lon="6.13705">
        <ele>541</ele>
        <time>2025-05-01T10:01:42Z</time>
      </trkpt>
      <trkpt lat="50.46014" lon="6.1393">
        <ele>535</ele>
        <time>2025-05-01T10:02:25Z</time>
      </trkpt>
      <trkpt lat="50.45979" lon="6.13991">
        <ele>536</ele>
        <time>2025-05-01T10:02:37Z</time>
      </trkpt>
      <trkpt lat="50.45966" lon="6.14055">
        <ele>537</ele>
        <time>2025-05-01T10:02:47Z</time>
      </trkpt>
      <trkpt lat="50.45977" lon="6.14079">
        <ele>539</ele>
        <time>2025-05-01T10:02:52Z</time>
      </trkpt>
      <trkpt lat="50.45958" lon="6.14277">
        <ele>546</ele>
        <time>2025-05-01T10:03:21Z</time>
      </trkpt>
      <trkpt lat="50.45961" lon="6.14293">
        <ele>547</ele>
        <time>2025-05-01T10:03:24Z</time>
      </trkpt>
      <trkpt lat="50.45851" lon="6.14386">
        <ele>547</ele>
        <time>2025-05-01T10:03:53Z</time>
      </trkpt>
      <trkpt lat="50.45473" lon="6.14732">
        <ele>546</ele>
        <time>2025-05-01T10:05:35Z</time>
      </trkpt>
      <trkpt lat="50.4518" lon="6.14995">
        <ele>542</ele>
        <time>2025-05-01T10:06:54Z</time>
      </trkpt>
      <trkpt lat="50.45112" lon="6.1507">
        <ele>539</ele>
        <time>2025-05-01T10:07:14Z</time>
      </trkpt>
      <trkpt lat="50.45055" lon="6.15164">
        <ele>538</ele>
        <time>2025-05-01T10:07:33Z</time>
      </trkpt>
      <trkpt lat="50.4498" lon="6.15316">
        <ele>536</ele>
        <time>2025-05-01T10:08:01Z</time>
      </trkpt>
      <trkpt lat="50.44899" lon="6.15427">
        <ele>536</ele>
        <time>2025-05-01T10:08:27Z</time>
      </trkpt>
      <trkpt lat="50.44798" lon="6.15505">
        <ele>541</ele>
        <time>2025-05-01T10:08:53Z</time>
      </trkpt>
      <trkpt lat="50.44654" lon="6.1552">
        <ele>539</ele>
        <time>2025-05-01T10:09:26Z</time>
      </trkpt>
      <trkpt lat="50.44586" lon="6.15518">
        <ele>536</ele>
        <time>2025-05-01T10:09:42Z</time>
      </trkpt>
      <trkpt lat="50.44502" lon="6.1555">
        <ele>532</ele>
        <time>2025-05-01T10:10:03Z</time>
      </trkpt>
      <trkpt lat="50.44466" lon="6.15578">
        <ele>532</ele>
        <time>2025-05-01T10:10:12Z</time>
      </trkpt>
      <trkpt lat="50.44404" lon="6.15657">
        <ele>532</ele>
        <time>2025-05-01T10:10:31Z</time>
      </trkpt>
      <trkpt lat="50.44356" lon="6.15782">
        <ele>529</ele>
        <time>2025-05-01T10:10:52Z</time>
      </trkpt>
      <trkpt lat="50.44338" lon="6.15867">
        <ele>527</ele>
        <time>2025-05-01T10:11:06Z</time>
      </trkpt>
      <trkpt lat="50.44335" lon="6.16003">
        <ele>526</ele>
        <time>2025-05-01T10:11:26Z</time>
      </trkpt>
      <trkpt lat="50.44385" lon="6.1635">
        <ele>516</ele>
        <time>2025-05-01T10:12:19Z</time>
      </trkpt>
      <trkpt lat="50.44385" lon="6.16416">
        <ele>512</ele>
        <time>2025-05-01T10:12:29Z</time>
      </trkpt>
      <trkpt lat="50.44359" lon="6.16536">
        <ele>515</ele>
        <time>2025-05-01T10:12:47Z</time>
      </trkpt>
      <trkpt lat="50.44327" lon="6.16613">
        <ele>518</ele>
        <time>2025-05-01T10:13:01Z</time>
      </trkpt>
      <trkpt lat="50.44291" lon="6.16674">
        <ele>519</ele>
        <time>2025-05-01T10:13:13Z</time>
      </trkpt>
      <trkpt lat="50.44215" lon="6.1676">
        <ele>525</ele>
        <time>2025-05-01T10:13:35Z</time>
      </trkpt>
      <trkpt lat="50.43848" lon="6.17084">
        <ele>535</ele>
        <time>2025-05-01T10:15:14Z</time>
      </trkpt>
      <trkpt lat="50.43793" lon="6.17127">
        <ele>535</ele>
        <time>2025-05-01T10:15:28Z</time>
      </trkpt>
      <trkpt lat="50.43754" lon="6.17136">
        <ele>537</ele>
        <time>2025-05-01T10:15:37Z</time>
      </trkpt>
      <trkpt lat="50.43682" lon="6.17143">
        <ele>537</ele>
        <time>2025-05-01T10:15:54Z</time>
      </trkpt>
      <trkpt lat="50.43554" lon="6.17122">
        <ele>537</ele>
        <time>2025-05-01T10:16:24Z</time>
      </trkpt>
      <trkpt lat="50.43518" lon="6.17121">
        <ele>536</ele>
        <time>2025-05-01T10:16:33Z</time>
      </trkpt>
      <trkpt lat="50.43474" lon="6.17131">
        <ele>537</ele>
        <time>2025-05-01T10:16:43Z</time>
      </trkpt>
      <trkpt lat="50.43422" lon="6.17159">
        <ele>542</ele>
        <time>2025-05-01T10:16:56Z</time>
      </trkpt>
      <trkpt lat="50.43174" lon="6.17334">
        <ele>545</ele>
        <time>2025-05-01T10:17:59Z</time>
      </trkpt>
      <trkpt lat="50.43122" lon="6.17357">
        <ele>545</ele>
        <time>2025-05-01T10:18:12Z</time>
      </trkpt>
      <trkpt lat="50.42885" lon="6.17411">
        <ele>547</ele>
        <time>2025-05-01T10:19:08Z</time>
      </trkpt>
      <trkpt lat="50.42829" lon="6.17404">
        <ele>552.5</ele>
      </trkpt>
      <trkpt lat="50.4278" lon="6.17385">
        <ele>552</ele>
        <time>2025-05-01T10:19:33Z</time>
      </trkpt>
      <trkpt lat="50.42714" lon="6.17336">
        <ele>554</ele>
        <time>2025-05-01T10:19:50Z</time>
      </trkpt>
      <trkpt lat="50.42665" lon="6.17284">
        <ele>556</ele>
        <time>2025-05-01T10:20:03Z</time>
      </trkpt>
      <trkpt lat="50.42582" lon="6.17122">
        <ele>558.1</ele>
        <time>2025-05-01T10:20:50Z</time>
      </trkpt>
      <trkpt lat="50.42528" lon="6.17034">
        <ele>559</ele>
      </trkpt>
      <trkpt lat="50.42444" lon="6.16968">
        <ele>559</ele>
        <time>2025-05-01T10:21:14Z</time>
      </trkpt>
      <trkpt lat="50.42376" lon="6.16938">
        <ele>559</ele>
        <time>2025-05-01T10:21:31Z</time>
      </trkpt>
      <trkpt lat="50.42334" lon="6.16933">
        <ele>559</ele>
        <time>2025-05-01T10:21:41Z</time>
      </trkpt>
      <trkpt lat="50.42244" lon="6.16944">
        <ele>561</ele>
        <time>2025-05-01T10:22:02Z</time>
      </trkpt>
      <trkpt lat="50.4215" lon="6.16979">
        <ele>560</ele>
        <time>2025-05-01T10:22:24Z</time>
      </trkpt>
      <trkpt lat="50.42063" lon="6.17016">
        <ele>560.7</ele>
      </trkpt>
      <trkpt lat="50.41903" lon="6.17107">
        <ele>561</ele>
      </trkpt>
      <trkpt lat="50.41737" lon="6.17197">
        <ele>561.5</ele>
      </trkpt>
      <trkpt lat="50.41607" lon="6.17256">
        <ele>561.8</ele>
      </trkpt>
      <trkpt lat="50.41562" lon="6.17268">
        <ele>562.3</ele>
      </trkpt>
      <trkpt lat="50.41453" lon="6.17273">
        <ele>560.4</ele>
      </trkpt>
      <trkpt lat="50.41335" lon="6.17255">
        <ele>558.7</ele>
      </trkpt>
      <trkpt lat="50.41257" lon="6.1724">
        <ele>557</ele>
      </trkpt>
      <trkpt lat="50.41209" lon="6.17231">
        <ele>556.2</ele>
      </trkpt>
      <trkpt lat="50.41018" lon="6.17191">
        <ele>553.6</ele>
      </trkpt>
      <trkpt lat="50.40942" lon="6.17161">
        <ele>551.6</ele>
      </trkpt>
      <trkpt lat="50.40879" lon="6.17103">
        <ele>550.6</ele>
      </trkpt>
      <trkpt lat="50.40818" lon="6.17004">
        <ele>548.9</ele>
      </trkpt>
      <trkpt lat="50.40703" lon="6.16745">
        <ele>545.5</ele>
      </trkpt>
      <trkpt lat="50.40669" lon="6.1661">
        <ele>544.2</ele>
      </trkpt>
      <trkpt lat="50.40661" lon="6.16428">
        <ele>542.6</ele>
      </trkpt>
      <trkpt lat="50.40675" lon="6.16328">
        <ele>542.1</ele>
      </trkpt>
      <trkpt lat="50.4069" lon="6.16265">
        <ele>541.3</ele>
      </trkpt>
      <trkpt lat="50.40737" lon="6.16117">
        <ele>537.8</ele>
      </trkpt>
      <trkpt lat="50.40752" lon="6.16022">
        <ele>538.5</ele>
      </trkpt>
      <trkpt lat="50.40757" lon="6.15904">
        <ele>536.7</ele>
      </trkpt>
      <trkpt lat="50.40745" lon="6.15813">
        <ele>535.9</ele>
      </trkpt>
      <trkpt lat="50.4071" lon="6.15674">
        <ele>534.5</ele>
      </trkpt>
      <trkpt lat="50.40654" lon="6.15461">
        <ele>532.3</ele>
      </trkpt>
      <trkpt lat="50.40594" lon="6.1526">
        <ele>528.8</ele>
      </trkpt>
      <trkpt lat="50.40549" lon="6.15106">
        <ele>527.9</ele>
      </trkpt>
      <trkpt lat="50.40538" lon="6.15054">
        <ele>525.4</ele>
      </trkpt>
      <trkpt lat="50.40532" lon="6.14999">
        <ele>526</ele>
      </trkpt>
      <trkpt lat="50.40529" lon="6.14903">
        <ele>526.3</ele>
      </trkpt>
      <trkpt lat="50.40537" lon="6.14833">
        <ele>523.7</ele>
      </trkpt>
      <trkpt lat="50.40547" lon="6.14779">
        <ele>524</ele>
      </trkpt>
      <trkpt lat="50.40583" lon="6.14666">
        <ele>524</ele>
      </trkpt>
      <trkpt lat="50.40614" lon="6.14579">
        <ele>522.5</ele>
      </trkpt>
      <trkpt lat="50.40631" lon="6.14526">
        <ele>522.3</ele>
      </trkpt>
      <trkpt lat="50.40647" lon="6.14458">
        <ele>521.1</ele>
      </trkpt>
      <trkpt lat="50.40659" lon="6.14368">
        <ele>520.3</ele>
      </trkpt>
      <trkpt lat="50.40686" lon="6.14191">
        <ele>518.1</ele>
      </trkpt>
      <trkpt lat="50.40713" lon="6.14025">
        <ele>517.1</ele>
      </trkpt>
      <trkpt lat="50.40752" lon="6.1378">
        <ele>519</ele>
      </trkpt>
      <trkpt lat="50.40788" lon="6.13586">
        <ele>517.7</ele>
      </trkpt>
      <trkpt lat="50.40824" lon="6.13421">
        <ele>517.3</ele>
      </trkpt>
      <trkpt lat="50.40893" lon="6.13187">
        <ele>513.5</ele>
      </trkpt>
      <trkpt lat="50.40948" lon="6.13007">
        <ele>512.1</ele>
      </trkpt>
      <trkpt lat="50.40988" lon="6.1286">
        <ele>511</ele>
      </trkpt>
      <trkpt lat="50.41002" lon="6.128">
        <ele>511</ele>
      </trkpt>
      <trkpt lat="50.41024" lon="6.12644">
        <ele>509.6</ele>
      </trkpt>
      <trkpt lat="50.41044" lon="6.12492">
        <ele>509.7</ele>
      </trkpt>
      <trkpt lat="50.41052" lon="6.12378">
        <ele>510.9</ele>
      </trkpt>
      <trkpt lat="50.41046" lon="6.12208">
        <ele>511.4</ele>
      </trkpt>
      <trkpt lat="50.41047" lon="6.12087">
        <ele>510.4</ele>
      </trkpt>
      <trkpt lat="50.41061" lon="6.11935">
        <ele>506.6</ele>
      </trkpt>
      <trkpt lat="50.41089" lon="6.11783">
        <ele>504.5</ele>
      </trkpt>
      <trkpt lat="50.4112" lon="6.11714">
        <ele>504.9</ele>
      </trkpt>
      <trkpt lat="50.41157" lon="6.11661">
        <ele>504</ele>
      </trkpt>
      <trkpt lat="50.41197" lon="6.11616">
        <ele>502.7</ele>
      </trkpt>
      <trkpt lat="50.41254" lon="6.11577">
        <ele>501.3</ele>
      </trkpt>
      <trkpt lat="50.41335" lon="6.1152">
        <ele>497.5</ele>
      </trkpt>
      <trkpt lat="50.41388" lon="6.11482">
        <ele>496.7</ele>
      </trkpt>
      <trkpt lat="50.41444" lon="6.11435">
        <ele>494.4</ele>
      </trkpt>
      <trkpt lat="50.41483" lon="6.11389">
        <ele>492.6</ele>
      </trkpt>
      <trkpt lat="50.41519" lon="6.11328">
        <ele>491.1</ele>
      </trkpt>
      <trkpt lat="50.41554" lon="6.11248">
        <ele>489.1</ele>
      </trkpt>
      <trkpt lat="50.41571" lon="6.11194">
        <ele>488</ele>
      </trkpt>
      <trkpt lat="50.41583" lon="6.11144">
        <ele>487.2</ele>
      </trkpt>
      <trkpt lat="50.41595" lon="6.11061">
        <ele>485.5</ele>
      </trkpt>
      <trkpt lat="50.41605" lon="6.10931">
        <ele>484.9</ele>
      </trkpt>
      <trkpt lat="50.41606" lon="6.10847">
        <ele>483.3</ele>
      </trkpt>
      <trkpt lat="50.4161" lon="6.10764">
        <ele>482.2</ele>
      </trkpt>
      <trkpt lat="50.41619" lon="6.10698">
        <ele>482.8</ele>
      </trkpt>
      <trkpt lat="50.41624" lon="6.10668">
        <ele>481.6</ele>
      </trkpt>
      <trkpt lat="50.41636" lon="6.10636">
        <ele>481.1</ele>
      </trkpt>
      <trkpt lat="50.41643" lon="6.10615">
        <ele>480.1</ele>
      </trkpt>
      <trkpt lat="50.41647" lon="6.10603">
        <ele>479.7</ele>
      </trkpt>
      <trkpt lat="50.41681" lon="6.10542">
        <ele>478.4</ele>
      </trkpt>
      <trkpt lat="50.41711" lon="6.10506">
        <ele>478.5</ele>
      </trkpt>
      <trkpt lat="50.41745" lon="6.1048">
        <ele>477.9</ele>
      </trkpt>
      <trkpt lat="50.41813" lon="6.10446">
        <ele>477.7</ele>
      </trkpt>
      <trkpt lat="50.4189" lon="6.10409">
        <ele>475.9</ele>
      </trkpt>
      <trkpt lat="50.4197" lon="6.1037">
        <ele>473.8</ele>
      </trkpt>
      <trkpt lat="50.42013" lon="6.10345">
        <ele>474.1</ele>
      </trkpt>
      <trkpt lat="50.42052" lon="6.1029">
        <ele>474.4</ele>
      </trkpt>
      <trkpt lat="50.42079" lon="6.10243">
        <ele>472</ele>
      </trkpt>
      <trkpt lat="50.42138" lon="6.1008">
        <ele>469</ele>
      </trkpt>
      <trkpt lat="50.42183" lon="6.09952">
        <ele>469</ele>
      </trkpt>
      <trkpt lat="50.42219" lon="6.099">
        <ele>467.9</ele>
      </trkpt>
      <trkpt lat="50.42293" lon="6.0984">
        <ele>467.4</ele>
      </trkpt>
      <trkpt lat="50.42347" lon="6.09792">
        <ele>465.8</ele>
      </trkpt>
      <trkpt lat="50.42385" lon="6.09742">
        <ele>465.2</ele>
      </trkpt>
      <trkpt lat="50.42411" lon="6.09703">
        <ele>466.3</ele>
      </trkpt>
      <trkpt lat="50.42433" lon="6.09631">
        <ele>461.1</ele>
      </trkpt>
      <trkpt lat="50.42444" lon="6.09504">
        <ele>461</ele>
      </trkpt>
      <trkpt lat="50.42438" lon="6.09431">
        <ele>458.4</ele>
      </trkpt>
      <trkpt lat="50.42412" lon="6.09333">
        <ele>458.7</ele>
      </trkpt>
      <trkpt lat="50.42353" lon="6.09217">
        <ele>459.5</ele>
      </trkpt>
      <trkpt lat="50.42317" lon="6.09139">
        <ele>457.8</ele>
      </trkpt>
      <trkpt lat="50.42293" lon="6.09055">
        <ele>456.9</ele>
      </trkpt>
      <trkpt lat="50.42286" lon="6.08977">
        <ele>456.7</ele>
      </trkpt>
      <trkpt lat="50.42281" lon="6.08863">
        <ele>455.4</ele>
      </trkpt>
      <trkpt lat="50.42274" lon="6.08767">
        <ele>454</ele>
      </trkpt>
      <trkpt lat="50.42253" lon="6.08705">
        <ele>450.7</ele>
      </trkpt>
      <trkpt lat="50.42231" lon="6.08656">
        <ele>452.3</ele>
      </trkpt>
      <trkpt lat="50.4215" lon="6.08546">
        <ele>452.4</ele>
      </trkpt>
      <trkpt lat="50.42101" lon="6.08465">
        <ele>446.4</ele>
      </trkpt>
      <trkpt lat="50.42075" lon="6.08374">
        <ele>445.9</ele>
      </trkpt>
      <trkpt lat="50.42069" lon="6.08323">
        <ele>446.3</ele>
      </trkpt>
      <trkpt lat="50.42071" lon="6.08213">
        <ele>443.8</ele>
      </trkpt>
      <trkpt lat="50.42094" lon="6.08112">
        <ele>440.2</ele>
      </trkpt>
      <trkpt lat="50.42136" lon="6.08024">
        <ele>439.2</ele>
      </trkpt>
      <trkpt lat="50.42169" lon="6.07983">
        <ele>439</ele>
      </trkpt>
      <trkpt lat="50.42205" lon="6.07949">
        <ele>437.7</ele>
      </trkpt>
      <trkpt lat="50.42251" lon="6.07919">
        <ele>435.9</ele>
      </trkpt>
      <trkpt lat="50.42283" lon="6.07891">
        <ele>435.7</ele>
      </trkpt>
      <trkpt lat="50.42322" lon="6.07849">
        <ele>435</ele>
      </trkpt>
      <trkpt lat="50.4235" lon="6.07801">
        <ele>431.6</ele>
      </trkpt>
      <trkpt lat="50.42379" lon="6.07727">
        <ele>431.2</ele>
      </trkpt>
      <trkpt lat="50.42395" lon="6.07684">
        <ele>429.8</ele>
      </trkpt>
      <trkpt lat="50.42407" lon="6.07619">
        <ele>425.9</ele>
      </trkpt>
      <trkpt lat="50.42414" lon="6.07553">
        <ele>427.3</ele>
      </trkpt>
      <trkpt lat="50.42415" lon="6.07452">
        <ele>425.1</ele>
      </trkpt>
      <trkpt lat="50.42417" lon="6.07333">
        <ele>422.1</ele>
      </trkpt>
      <trkpt lat="50.42432" lon="6.07216">
        <ele>423.1</ele>
      </trkpt>
      <trkpt lat="50.42448" lon="6.07172">
        <ele>419.7</ele>
      </trkpt>
      <trkpt lat="50.4246" lon="6.07135">
        <ele>418.4</ele>
      </trkpt>
      <trkpt lat="50.42471" lon="6.07107">
        <ele>417.6</ele>
      </trkpt>
      <trkpt lat="50.42494" lon="6.07065">
        <ele>416.2</ele>
      </trkpt>
      <trkpt lat="50.42557" lon="6.06992">
        <ele>415.6</ele>
      </trkpt>
      <trkpt lat="50.42601" lon="6.06959">
        <ele>413.5</ele>
      </trkpt>
      <trkpt lat="50.42639" lon="6.06926">
        <ele>414.3</ele>
      </trkpt>
      <trkpt lat="50.42679" lon="6.06865">
        <ele>411.5</ele>
      </trkpt>
      <trkpt lat="50.42718" lon="6.06781">
        <ele>409.7</ele>
      </trkpt>
      <trkpt lat="50.42763" lon="6.06681">
        <ele>410.5</ele>
      </trkpt>
      <trkpt lat="50.42792" lon="6.06584">
        <ele>406</ele>
      </trkpt>
      <trkpt lat="50.42799" lon="6.06465">
        <ele>405.8</ele>
      </trkpt>
      <trkpt lat="50.42791" lon="6.06388">
        <ele>405.3</ele>
      </trkpt>
      <trkpt lat="50.42774" lon="6.06324">
        <ele>401.5</ele>
      </trkpt>
      <trkpt lat="50.42746" lon="6.06261">
        <ele>397.1</ele>
      </trkpt>
      <trkpt lat="50.42719" lon="6.06215">
        <ele>398</ele>
      </trkpt>
      <trkpt lat="50.42685" lon="6.0618">
        <ele>395.2</ele>
      </trkpt>
      <trkpt lat="50.4265" lon="6.06149">
        <ele>393.4</ele>
      </trkpt>
      <trkpt lat="50.42568" lon="6.06079">
        <ele>395.1</ele>
      </trkpt>
      <trkpt lat="50.42495" lon="6.06015">
        <ele>387.9</ele>
      </trkpt>
      <trkpt lat="50.42453" lon="6.05968">
        <ele>388</ele>
      </trkpt>
      <trkpt lat="50.42294" lon="6.05658">
        <ele>382.9</ele>
      </trkpt>
      <trkpt lat="50.42196" lon="6.05516">
        <ele>379.3</ele>
      </trkpt>
      <trkpt lat="50.42109" lon="6.05391">
        <ele>375.3</ele>
      </trkpt>
      <trkpt lat="50.4205" lon="6.05307">
        <ele>373.5</ele>
      </trkpt>
      <trkpt lat="50.4201" lon="6.05224">
        <ele>371.4</ele>
      </trkpt>
      <trkpt lat="50.41986" lon="6.05156">
        <ele>369.8</ele>
      </trkpt>
      <trkpt lat="50.41971" lon="6.05093">
        <ele>369.2</ele>
      </trkpt>
      <trkpt lat="50.41972" lon="6.05056">
        <ele>369.1</ele>
      </trkpt>
      <trkpt lat="50.4196" lon="6.05047">
        <ele>371.7</ele>
      </trkpt>
      <trkpt lat="50.41956" lon="6.04965">
        <ele>367.7</ele>
      </trkpt>
      <trkpt lat="50.41943" lon="6.04815">
        <ele>364.3</ele>
      </trkpt>
      <trkpt lat="50.41936" lon="6.04728">
        <ele>362.8</ele>
      </trkpt>
      <trkpt lat="50.41949" lon="6.04624">
        <ele>361.1</ele>
      </trkpt>
      <trkpt lat="50.41975" lon="6.04512">
        <ele>360.2</ele>
      </trkpt>
      <trkpt lat="50.42082" lon="6.04182">
        <ele>358.5</ele>
      </trkpt>
      <trkpt lat="50.42159" lon="6.03951">
        <ele>358.3</ele>
      </trkpt>
      <trkpt lat="50.42226" lon="6.03735">
        <ele>355.3</ele>
      </trkpt>
      <trkpt lat="50.4225" lon="6.03655">
        <ele>353</ele>
      </trkpt>
      <trkpt lat="50.42255" lon="6.03574">
        <ele>352.5</ele>
      </trkpt>
      <trkpt lat="50.42258" lon="6.0334">
        <ele>352</ele>
      </trkpt>
      <trkpt lat="50.42262" lon="6.03192">
        <ele>352.4</ele>
      </trkpt>
      <trkpt lat="50.42261" lon="6.03144">
        <ele>352.4</ele>
      </trkpt>
      <trkpt lat="50.42264" lon="6.02952">
        <ele>352.1</ele>
      </trkpt>
      <trkpt lat="50.42261" lon="6.02853">
        <ele>349.8</ele>
      </trkpt>
      <trkpt lat="50.42247" lon="6.02729">
        <ele>350.4</ele>
      </trkpt>
      <trkpt lat="50.42227" lon="6.02653">
        <ele>350.2</ele>
      </trkpt>
      <trkpt lat="50.41991" lon="6.02057">
        <ele>341.2</ele>
      </trkpt>
      <trkpt lat="50.4198" lon="6.0203">
        <ele>342.7</ele>
      </trkpt>
      <trkpt lat="50.41917" lon="6.01872">
        <ele>341.7</ele>
      </trkpt>
      <trkpt lat="50.41899" lon="6.01791">
        <ele>339.2</ele>
      </trkpt>
      <trkpt lat="50.41889" lon="6.0172">
        <ele>337.8</ele>
      </trkpt>
      <trkpt lat="50.41881" lon="6.01639">
        <ele>333.7</ele>
      </trkpt>
      <trkpt lat="50.41891" lon="6.01491">
        <ele>334</ele>
      </trkpt>
      <trkpt lat="50.4192" lon="6.01368">
        <ele>331.2</ele>
      </trkpt>
      <trkpt lat="50.41946" lon="6.01277">
        <ele>332.4</ele>
      </trkpt>
      <trkpt lat="50.42007" lon="6.01109">
        <ele>330.4</ele>
      </trkpt>
      <trkpt lat="50.4206" lon="6.00939">
        <ele>332.2</ele>
      </trkpt>
      <trkpt lat="50.42079" lon="6.00851">
        <ele>333.7</ele>
      </trkpt>
      <trkpt lat="50.42083" lon="6.00736">
        <ele>330.8</ele>
      </trkpt>
      <trkpt lat="50.42076" lon="6.00612">
        <ele>338</ele>
      </trkpt>
      <trkpt lat="50.42045" lon="6.00498">
        <ele>337.3</ele>
      </trkpt>
      <trkpt lat="50.42022" lon="6.00424">
        <ele>342.1</ele>
      </trkpt>
      <trkpt lat="50.41954" lon="6.00198">
        <ele>343.8</ele>
      </trkpt>
      <trkpt lat="50.41902" lon="5.99988">
        <ele>347.3</ele>
      </trkpt>
      <trkpt lat="50.41867" lon="5.99905">
        <ele>349.5</ele>
      </trkpt>
      <trkpt lat="50.41847" lon="5.99865">
        <ele>352.3</ele>
      </trkpt>
      <trkpt lat="50.41825" lon="5.99836">
        <ele>351.1</ele>
      </trkpt>
      <trkpt lat="50.41759" lon="5.99734">
        <ele>351</ele>
      </trkpt>
      <trkpt lat="50.41722" lon="5.99644">
        <ele>351.8</ele>
      </trkpt>
      <trkpt lat="50.41711" lon="5.9959">
        <ele>364.2</ele>
      </trkpt>
      <trkpt lat="50.417" lon="5.99494">
        <ele>374</ele>
      </trkpt>
      <trkpt lat="50.41694" lon="5.9939">
        <ele>370.2</ele>
      </trkpt>
      <trkpt lat="50.41682" lon="5.99319">
        <ele>360.4</ele>
      </trkpt>
      <trkpt lat="50.41663" lon="5.99222">
        <ele>356.9</ele>
      </trkpt>
      <trkpt lat="50.41524" lon="5.98777">
        <ele>351.8</ele>
      </trkpt>
      <trkpt lat="50.41476" lon="5.98661">
        <ele>350.3</ele>
      </trkpt>
      <trkpt lat="50.41429" lon="5.98569">
        <ele>346.7</ele>
      </trkpt>
      <trkpt lat="50.41387" lon="5.98485">
        <ele>348.8</ele>
      </trkpt>
      <trkpt lat="50.41352" lon="5.98373">
        <ele>349.2</ele>
      </trkpt>
      <trkpt lat="50.41281" lon="5.98089">
        <ele>340.9</ele>
      </trkpt>
      <trkpt lat="50.41225" lon="5.97873">
        <ele>340.2</ele>
      </trkpt>
      <trkpt lat="50.41135" lon="5.97627">
        <ele>341.2</ele>
      </trkpt>
      <trkpt lat="50.41027" lon="5.97347">
        <ele>335.2</ele>
      </trkpt>
      <trkpt lat="50.40958" lon="5.97186">
        <ele>333.2</ele>
      </trkpt>
      <trkpt lat="50.40833" lon="5.96851">
        <ele>332.1</ele>
      </trkpt>
      <trkpt lat="50.40736" lon="5.96593">
        <ele>327.5</ele>
      </trkpt>
      <trkpt lat="50.40612" lon="5.96259">
        <ele>321.5</ele>
      </trkpt>
      <trkpt lat="50.40492" lon="5.95926">
        <ele>315.1</ele>
      </trkpt>
      <trkpt lat="50.40395" lon="5.9561">
        <ele>307</ele>
      </trkpt>
      <trkpt lat="50.40337" lon="5.95382">
        <ele>305</ele>
      </trkpt>
      <trkpt lat="50.4029" lon="5.95167">
        <ele>300</ele>
      </trkpt>
      <trkpt lat="50.40248" lon="5.94933">
        <ele>309.5</ele>
      </trkpt>
      <trkpt lat="50.4021" lon="5.94705">
        <ele>305.3</ele>
      </trkpt>
      <trkpt lat="50.40179" lon="5.94518">
        <ele>310.1</ele>
      </trkpt>
      <trkpt lat="50.4014" lon="5.94284">
        <ele>321.1</ele>
      </trkpt>
      <trkpt lat="50.40108" lon="5.94098">
        <ele>324.8</ele>
      </trkpt>
      <trkpt lat="50.40068" lon="5.93903">
        <ele>341.6</ele>
      </trkpt>
      <trkpt lat="50.40034" lon="5.93749">
        <ele>350.3</ele>
      </trkpt>
      <trkpt lat="50.39974" lon="5.93502">
        <ele>349.3</ele>
      </trkpt>
      <trkpt lat="50.39934" lon="5.93352">
        <ele>338</ele>
      </trkpt>
      <trkpt lat="50.39911" lon="5.93275">
        <ele>333.6</ele>
      </trkpt>
      <trkpt lat="50.39865" lon="5.93139">
        <ele>331.5</ele>
      </trkpt>
      <trkpt lat="50.39823" lon="5.9302">
        <ele>333.2</ele>
      </trkpt>
      <trkpt lat="50.39758" lon="5.92838">
        <ele>331.2</ele>
      </trkpt>
      <trkpt lat="50.39682" lon="5.92709">
        <ele>329</ele>
      </trkpt>
      <trkpt lat="50.39617" lon="5.92633">
        <ele>330.1</ele>
      </trkpt>
      <trkpt lat="50.39543" lon="5.9257">
        <ele>331</ele>
      </trkpt>
      <trkpt lat="50.39064" lon="5.92302">
        <ele>325</ele>
      </trkpt>
      <trkpt lat="50.38909" lon="5.92217">
        <ele>326</ele>
      </trkpt>
      <trkpt lat="50.38854" lon="5.92186">
        <ele>327.3</ele>
      </trkpt>
      <trkpt lat="50.38821" lon="5.92164">
        <ele>326.8</ele>
      </trkpt>
      <trkpt lat="50.3876" lon="5.92098">
        <ele>327</ele>
      </trkpt>
      <trkpt lat="50.38708" lon="5.92032">
        <ele>327.4</ele>
      </trkpt>
      <trkpt lat="50.38649" lon="5.9193">
        <ele>324.9</ele>
      </trkpt>
      <trkpt lat="50.38622" lon="5.91859">
        <ele>323.6</ele>
      </trkpt>
      <trkpt lat="50.38593" lon="5.91775">
        <ele>321.6</ele>
      </trkpt>
      <trkpt lat="50.38572" lon="5.91675">
        <ele>320</ele>
      </trkpt>
      <trkpt lat="50.38555" lon="5.91545">
        <ele>316</ele>
      </trkpt>
      <trkpt lat="50.38555" lon="5.91488">
        <ele>316</ele>
      </trkpt>
      <trkpt lat="50.38554" lon="5.91454">
        <ele>315.2</ele>
      </trkpt>
      <trkpt lat="50.38558" lon="5.91281">
        <ele>311.7</ele>
      </trkpt>
      <trkpt lat="50.38564" lon="5.91047">
        <ele>309</ele>
      </trkpt>
      <trkpt lat="50.38571" lon="5.90754">
        <ele>304.3</ele>
      </trkpt>
      <trkpt lat="50.38577" lon="5.90539">
        <ele>305.9</ele>
      </trkpt>
      <trkpt lat="50.38568" lon="5.90414">
        <ele>305.6</ele>
      </trkpt>
      <trkpt lat="50.38552" lon="5.90324">
        <ele>303.8</ele>
      </trkpt>
      <trkpt lat="50.38532" lon="5.90244">
        <ele>303.5</ele>
      </trkpt>
      <trkpt lat="50.38479" lon="5.90113">
        <ele>299.6</ele>
      </trkpt>
      <trkpt lat="50.38446" lon="5.90054">
        <ele>298.3</ele>
      </trkpt>
      <trkpt lat="50.38413" lon="5.90006">
        <ele>295.3</ele>
      </trkpt>
      <trkpt lat="50.38358" lon="5.8995">
        <ele>294.2</ele>
      </trkpt>
      <trkpt lat="50.38334" lon="5.89928">
        <ele>295.8</ele>
      </trkpt>
      <trkpt lat="50.38262" lon="5.89881">
        <ele>292.7</ele>
      </trkpt>
      <trkpt lat="50.3816" lon="5.89817">
        <ele>289.5</ele>
      </trkpt>
      <trkpt lat="50.38072" lon="5.89734">
        <ele>292</ele>
      </trkpt>
      <trkpt lat="50.38013" lon="5.89656">
        <ele>290.5</ele>
      </trkpt>
      <trkpt lat="50.37955" lon="5.89537">
        <ele>290</ele>
      </trkpt>
      <trkpt lat="50.3793" lon="5.89455">
        <ele>289</ele>
      </trkpt>
      <trkpt lat="50.37899" lon="5.89303">
        <ele>280.8</ele>
      </trkpt>
      <trkpt lat="50.3789" lon="5.89182">
        <ele>280.3</ele>
      </trkpt>
      <trkpt lat="50.37902" lon="5.8899">
        <ele>275.2</ele>
      </trkpt>
      <trkpt lat="50.37914" lon="5.88767">
        <ele>275.7</ele>
      </trkpt>
      <trkpt lat="50.37911" lon="5.88682">
        <ele>274.3</ele>
      </trkpt>
      <trkpt lat="50.37899" lon="5.88595">
        <ele>271.7</ele>
      </trkpt>
      <trkpt lat="50.37885" lon="5.88524">
        <ele>269.8</ele>
      </trkpt>
      <trkpt lat="50.37859" lon="5.8843">
        <ele>271.7</ele>
      </trkpt>
      <trkpt lat="50.37758" lon="5.88188">
        <ele>269.5</ele>
      </trkpt>
      <trkpt lat="50.37716" lon="5.88052">
        <ele>262.9</ele>
      </trkpt>
      <trkpt lat="50.37663" lon="5.87666">
        <ele>260.2</ele>
      </trkpt>
      <trkpt lat="50.37651" lon="5.87604">
        <ele>257.4</ele>
      </trkpt>
      <trkpt lat="50.37619" lon="5.87545">
        <ele>257</ele>
      </trkpt>
      <trkpt lat="50.37583" lon="5.87497">
        <ele>252.8</ele>
      </trkpt>
      <trkpt lat="50.37556" lon="5.8747">
        <ele>249</ele>
      </trkpt>
      <trkpt lat="50.37552" lon="5.8747">
        <ele>248.4</ele>
      </trkpt>
      <trkpt lat="50.37539" lon="5.87458">
        <ele>247.9</ele>
      </trkpt>
      <trkpt lat="50.37539" lon="5.87445">
        <ele>249</ele>
      </trkpt>
      <trkpt lat="50.37538" lon="5.87406">
        <ele>251.6</ele>
      </trkpt>
      <trkpt lat="50.37544" lon="5.87391">
        <ele>250.2</ele>
      </trkpt>
      <trkpt lat="50.3757" lon="5.8738">
        <ele>246</ele>
      </trkpt>
      <trkpt lat="50.37575" lon="5.87373">
        <ele>246.1</ele>
      </trkpt>
      <trkpt lat="50.37548" lon="5.87355">
        <ele>247.7</ele>
      </trkpt>
      <trkpt lat="50.37523" lon="5.87329">
        <ele>253.2</ele>
      </trkpt>
      <trkpt lat="50.37501" lon="5.87314">
        <ele>255.3</ele>
      </trkpt>
      <trkpt lat="50.37474" lon="5.87303">
        <ele>253.5</ele>
      </trkpt>
      <trkpt lat="50.37434" lon="5.8728">
        <ele>253.4</ele>
      </trkpt>
      <trkpt lat="50.37399" lon="5.87262">
        <ele>254.5</ele>
      </trkpt>
      <trkpt lat="50.37366" lon="5.87248">
        <ele>254.1</ele>
      </trkpt>
      <trkpt lat="50.37336" lon="5.87238">
        <ele>255.3</ele>
      </trkpt>
      <trkpt lat="50.37284" lon="5.87226">
        <ele>253.7</ele>
      </trkpt>
      <trkpt lat="50.37255" lon="5.87223">
        <ele>254</ele>
      </trkpt>
      <trkpt lat="50.37239" lon="5.8722">
        <ele>254.1</ele>
      </trkpt>
      <trkpt lat="50.37235" lon="5.87212">
        <ele>253.2</ele>
      </trkpt>
      <trkpt lat="50.37227" lon="5.87218">
        <ele>254.2</ele>
      </trkpt>
      <trkpt lat="50.37222" lon="5.87202">
        <ele>252.1</ele>
      </trkpt>
      <trkpt lat="50.37238" lon="5.87193">
        <ele>250.7</ele>
      </trkpt>
      <trkpt lat="50.37225" lon="5.87115">
        <ele>249.9</ele>
      </trkpt>
      <trkpt lat="50.3731" lon="5.87078">
        <ele>247.9</ele>
      </trkpt>
      <trkpt lat="50.3738" lon="5.87053">
        <ele>253.8</ele>
      </trkpt>
      <trkpt lat="50.37394" lon="5.8706">
        <ele>253.3</ele>
      </trkpt>
      <trkpt lat="50.374" lon="5.87065">
        <ele>252.5</ele>
      </trkpt>
      <trkpt lat="50.37444" lon="5.87078">
        <ele>253.5</ele>
      </trkpt>
      <trkpt lat="50.37469" lon="5.87089">
        <ele>254.8</ele>
      </trkpt>
      <trkpt lat="50.37544" lon="5.87136">
        <ele>254.1</ele>
      </trkpt>
      <trkpt lat="50.37593" lon="5.87167">
        <ele>252.2</ele>
      </trkpt>
      <trkpt lat="50.37632" lon="5.87182">
        <ele>253.3</ele>
      </trkpt>
      <trkpt lat="50.37716" lon="5.87228">
        <ele>255.1</ele>
      </trkpt>
      <trkpt lat="50.37773" lon="5.87277">
        <ele>258</ele>
      </trkpt>
      <trkpt lat="50.37794" lon="5.87304">
        <ele>257.3</ele>
      </trkpt>
      <trkpt lat="50.37801" lon="5.87319">
        <ele>256.6</ele>
      </trkpt>
      <trkpt lat="50.37818" lon="5.8739">
        <ele>252.4</ele>
      </trkpt>
      <trkpt lat="50.37843" lon="5.87459">
        <ele>246.1</ele>
      </trkpt>
      <trkpt lat="50.37886" lon="5.87523">
        <ele>243.3</ele>
      </trkpt>
      <trkpt lat="50.37929" lon="5.87563">
        <ele>243</ele>
      </trkpt>
      <trkpt lat="50.38013" lon="5.87611">
        <ele>242.5</ele>
      </trkpt>
      <trkpt lat="50.38089" lon="5.8766">
        <ele>242</ele>
      </trkpt>
      <trkpt lat="50.38129" lon="5.87692">
        <ele>242.6</ele>
      </trkpt>
      <trkpt lat="50.38244" lon="5.87699">
        <ele>242.9</ele>
      </trkpt>
      <trkpt lat="50.38259" lon="5.87705">
        <ele>242.5</ele>
      </trkpt>
      <trkpt lat="50.38286" lon="5.87691">
        <ele>243.8</ele>
      </trkpt>
      <trkpt lat="50.38362" lon="5.87695">
        <ele>244</ele>
      </trkpt>
      <trkpt lat="50.38496" lon="5.87705">
        <ele>252.5</ele>
      </trkpt>
      <trkpt lat="50.38607" lon="5.87712">
        <ele>252.8</ele>
      </trkpt>
      <trkpt lat="50.38711" lon="5.87702">
        <ele>255.2</ele>
      </trkpt>
      <trkpt lat="50.38755" lon="5.87689">
        <ele>259.5</ele>
      </trkpt>
      <trkpt lat="50.38769" lon="5.87685">
        <ele>260.3</ele>
      </trkpt>
      <trkpt lat="50.38785" lon="5.87667">
        <ele>260.7</ele>
      </trkpt>
      <trkpt lat="50.38851" lon="5.87704">
        <ele>257.1</ele>
      </trkpt>
      <trkpt lat="50.38922" lon="5.87775">
        <ele>255.4</ele>
      </trkpt>
      <trkpt lat="50.38974" lon="5.87798">
        <ele>254.2</ele>
      </trkpt>
      <trkpt lat="50.38985" lon="5.87799">
        <ele>253.6</ele>
      </trkpt>
      <trkpt lat="50.39018" lon="5.87771">
        <ele>251.2</ele>
      </trkpt>
      <trkpt lat="50.39046" lon="5.87757">
        <ele>248.3</ele>
      </trkpt>
      <trkpt lat="50.39109" lon="5.87791">
        <ele>244.2</ele>
      </trkpt>
      <trkpt lat="50.39135" lon="5.87784">
        <ele>243.3</ele>
      </trkpt>
      <trkpt lat="50.39163" lon="5.8777">
        <ele>241.1</ele>
      </trkpt>
      <trkpt lat="50.39177" lon="5.87761">
        <ele>239.6</ele>
      </trkpt>
      <trkpt lat="50.39207" lon="5.87733">
        <ele>238</ele>
      </trkpt>
      <trkpt lat="50.39223" lon="5.87713">
        <ele>237.6</ele>
      </trkpt>
      <trkpt lat="50.39254" lon="5.87771">
        <ele>236.8</ele>
      </trkpt>
      <trkpt lat="50.39266" lon="5.87773">
        <ele>236.9</ele>
      </trkpt>
      <trkpt lat="50.39308" lon="5.87702">
        <ele>236.7</ele>
      </trkpt>
      <trkpt lat="50.39335" lon="5.87655">
        <ele>235.9</ele>
      </trkpt>
      <trkpt lat="50.39367" lon="5.87752">
        <ele>238.5</ele>
      </trkpt>
      <trkpt lat="50.3937" lon="5.87769">
        <ele>240.3</ele>
      </trkpt>
      <trkpt lat="50.39378" lon="5.87761">
        <ele>237.2</ele>
      </trkpt>
      <trkpt lat="50.39394" lon="5.87792">
        <ele>239.8</ele>
      </trkpt>
      <trkpt lat="50.39419" lon="5.87826">
        <ele>239.7</ele>
      </trkpt>
      <trkpt lat="50.39466" lon="5.87867">
        <ele>239.2</ele>
      </trkpt>
      <trkpt lat="50.39497" lon="5.87892">
        <ele>239.9</ele>
      </trkpt>
      <trkpt lat="50.3955" lon="5.87925">
        <ele>240</ele>
      </trkpt>
      <trkpt lat="50.39558" lon="5.87916">
        <ele>237.3</ele>
      </trkpt>
      <trkpt lat="50.39585" lon="5.87911">
        <ele>231.9</ele>
      </trkpt>
      <trkpt lat="50.39591" lon="5.8791">
        <ele>231.1</ele>
      </trkpt>
      <trkpt lat="50.39632" lon="5.87891">
        <ele>226.5</ele>
      </trkpt>
      <trkpt lat="50.39624" lon="5.87851">
        <ele>222</ele>
      </trkpt>
      <trkpt lat="50.39625" lon="5.87796">
        <ele>221.8</ele>
      </trkpt>
      <trkpt lat="50.39549" lon="5.87741">
        <ele>222.8</ele>
      </trkpt>
      <trkpt lat="50.39542" lon="5.87728">
        <ele>222.6</ele>
      </trkpt>
      <trkpt lat="50.39502" lon="5.87703">
        <ele>223</ele>
      </trkpt>
      <trkpt lat="50.39512" lon="5.87632">
        <ele>223</ele>
      </trkpt>
      <trkpt lat="50.39439" lon="5.87559">
        <ele>224</ele>
      </trkpt>
      <trkpt lat="50.39418" lon="5.87531">
        <ele>223.9</ele>
      </trkpt>
      <trkpt lat="50.39407" lon="5.87481">
        <ele>224</ele>
      </trkpt>
      <trkpt lat="50.39457" lon="5.87412">
        <ele>224</ele>
      </trkpt>
      <trkpt lat="50.39517" lon="5.87629">
        <ele>223</ele>
      </trkpt>
      <trkpt lat="50.39553" lon="5.87648">
        <ele>222.7</ele>
      </trkpt>
      <trkpt lat="50.3955" lon="5.87622">
        <ele>225.9</ele>
      </trkpt>
      <trkpt lat="50.3953" lon="5.87555">
        <ele>224.2</ele>
      </trkpt>
      <trkpt lat="50.39519" lon="5.87502">
        <ele>226.4</ele>
      </trkpt>
      <trkpt lat="50.39523" lon="5.87491">
        <ele>227.4</ele>
      </trkpt>
      <trkpt lat="50.39525" lon="5.87378">
        <ele>232.2</ele>
      </trkpt>
      <trkpt lat="50.39529" lon="5.87342">
        <ele>232.6</ele>
      </trkpt>
      <trkpt lat="50.39548" lon="5.87268">
        <ele>236.7</ele>
      </trkpt>
      <trkpt lat="50.39573" lon="5.87179">
        <ele>241.3</ele>
      </trkpt>
      <trkpt lat="50.39599" lon="5.8711">
        <ele>247.4</ele>
      </trkpt>
      <trkpt lat="50.39629" lon="5.86984">
        <ele>253.4</ele>
      </trkpt>
      <trkpt lat="50.39532" lon="5.86947">
        <ele>247.9</ele>
      </trkpt>
      <trkpt lat="50.39417" lon="5.86905">
        <ele>249.7</ele>
      </trkpt>
      <trkpt lat="50.39387" lon="5.87018">
        <ele>249.2</ele>
      </trkpt>
      <trkpt lat="50.39371" lon="5.87056">
        <ele>250.3</ele>
      </trkpt>
      <trkpt lat="50.39349" lon="5.87106">
        <ele>250</ele>
      </trkpt>
      <trkpt lat="50.39337" lon="5.87174">
        <ele>248.1</ele>
      </trkpt>
      <trkpt lat="50.3933" lon="5.8718">
        <ele>249.8</ele>
      </trkpt>
      <trkpt lat="50.39323" lon="5.87239">
        <ele>246.3</ele>
      </trkpt>
      <trkpt lat="50.39318" lon="5.87413">
        <ele>240.5</ele>
      </trkpt>
      <trkpt lat="50.39318" lon="5.87464">
        <ele>238.7</ele>
      </trkpt>
      <trkpt lat="50.39329" lon="5.87617">
        <ele>236.6</ele>
      </trkpt>
      <trkpt lat="50.39335" lon="5.87649">
        <ele>235.9</ele>
      </trkpt>
      <trkpt lat="50.39312" lon="5.87687">
        <ele>236.2</ele>
      </trkpt>
      <trkpt lat="50.3928" lon="5.87635">
        <ele>235.7</ele>
      </trkpt>
      <trkpt lat="50.39251" lon="5.87687">
        <ele>235.7</ele>
      </trkpt>
      <trkpt lat="50.39228" lon="5.87716">
        <ele>237.4</ele>
      </trkpt>
      <trkpt lat="50.39222" lon="5.87706">
        <ele>237.4</ele>
      </trkpt>
      <trkpt lat="50.39204" lon="5.87731">
        <ele>238</ele>
      </trkpt>
      <trkpt lat="50.39177" lon="5.87756">
        <ele>239.4</ele>
      </trkpt>
      <trkpt lat="50.39162" lon="5.87765">
        <ele>241</ele>
      </trkpt>
      <trkpt lat="50.3913" lon="5.87782">
        <ele>243.4</ele>
      </trkpt>
      <trkpt lat="50.3911" lon="5.87786">
        <ele>244.1</ele>
      </trkpt>
      <trkpt lat="50.39094" lon="5.87779">
        <ele>245.3</ele>
      </trkpt>
      <trkpt lat="50.39055" lon="5.87759">
        <ele>247.3</ele>
      </trkpt>
      <trkpt lat="50.39047" lon="5.87755">
        <ele>248.1</ele>
      </trkpt>
      <trkpt lat="50.39023" lon="5.87765">
        <ele>250.8</ele>
      </trkpt>
      <trkpt lat="50.39018" lon="5.87767">
        <ele>251.1</ele>
      </trkpt>
      <trkpt lat="50.38986" lon="5.87794">
        <ele>253.5</ele>
      </trkpt>
      <trkpt lat="50.38973" lon="5.87796">
        <ele>254.3</ele>
      </trkpt>
      <trkpt lat="50.38922" lon="5.87771">
        <ele>255.6</ele>
      </trkpt>
      <trkpt lat="50.38884" lon="5.87734">
        <ele>256.4</ele>
      </trkpt>
      <trkpt lat="50.38841" lon="5.87696">
        <ele>258.5</ele>
      </trkpt>
      <trkpt lat="50.38809" lon="5.87678">
        <ele>259.5</ele>
      </trkpt>
      <trkpt lat="50.38781" lon="5.8767">
        <ele>260.8</ele>
      </trkpt>
      <trkpt lat="50.38739" lon="5.87655">
        <ele>266.7</ele>
      </trkpt>
      <trkpt lat="50.38724" lon="5.87637">
        <ele>268.6</ele>
      </trkpt>
      <trkpt lat="50.38695" lon="5.8762">
        <ele>274.5</ele>
      </trkpt>
      <trkpt lat="50.38669" lon="5.87584">
        <ele>277.5</ele>
      </trkpt>
      <trkpt lat="50.38561" lon="5.87522">
        <ele>292.4</ele>
      </trkpt>
      <trkpt lat="50.38455" lon="5.87462">
        <ele>304.4</ele>
      </trkpt>
      <trkpt lat="50.38423" lon="5.87438">
        <ele>308.4</ele>
      </trkpt>
      <trkpt lat="50.38375" lon="5.87401">
        <ele>313.5</ele>
      </trkpt>
      <trkpt lat="50.38364" lon="5.87402">
        <ele>315.5</ele>
      </trkpt>
      <trkpt lat="50.38328" lon="5.87368">
        <ele>320.8</ele>
      </trkpt>
      <trkpt lat="50.38304" lon="5.87357">
        <ele>323.4</ele>
      </trkpt>
      <trkpt lat="50.38248" lon="5.87331">
        <ele>322.7</ele>
      </trkpt>
      <trkpt lat="50.38213" lon="5.87333">
        <ele>321</ele>
      </trkpt>
      <trkpt lat="50.38186" lon="5.87328">
        <ele>319.4</ele>
      </trkpt>
      <trkpt lat="50.38156" lon="5.87332">
        <ele>314.7</ele>
      </trkpt>
      <trkpt lat="50.38078" lon="5.87331">
        <ele>308.2</ele>
      </trkpt>
      <trkpt lat="50.37972" lon="5.87331">
        <ele>310.8</ele>
      </trkpt>
      <trkpt lat="50.37937" lon="5.87299">
        <ele>315.5</ele>
      </trkpt>
      <trkpt lat="50.37925" lon="5.87274">
        <ele>316.3</ele>
      </trkpt>
      <trkpt lat="50.37911" lon="5.87209">
        <ele>318.8</ele>
      </trkpt>
      <trkpt lat="50.37891" lon="5.87179">
        <ele>317.3</ele>
      </trkpt>
      <trkpt lat="50.37869" lon="5.87111">
        <ele>318.1</ele>
      </trkpt>
      <trkpt lat="50.37847" lon="5.87086">
        <ele>316</ele>
      </trkpt>
      <trkpt lat="50.37826" lon="5.87033">
        <ele>317.6</ele>
      </trkpt>
      <trkpt lat="50.37797" lon="5.8698">
        <ele>318.9</ele>
      </trkpt>
      <trkpt lat="50.37729" lon="5.8689">
        <ele>318.2</ele>
      </trkpt>
      <trkpt lat="50.37708" lon="5.8686">
        <ele>318.6</ele>
      </trkpt>
      <trkpt lat="50.37674" lon="5.86805">
        <ele>321.2</ele>
      </trkpt>
      <trkpt lat="50.37636" lon="5.86772">
        <ele>320.6</ele>
      </trkpt>
      <trkpt lat="50.37593" lon="5.86744">
        <ele>319.7</ele>
      </trkpt>
      <trkpt lat="50.37579" lon="5.86746">
        <ele>318.3</ele>
      </trkpt>
      <trkpt lat="50.37571" lon="5.86721">
        <ele>320.7</ele>
      </trkpt>
      <trkpt lat="50.37539" lon="5.86651">
        <ele>325</ele>
      </trkpt>
      <trkpt lat="50.37516" lon="5.86621">
        <ele>326.8</ele>
      </trkpt>
      <trkpt lat="50.37494" lon="5.866">
        <ele>328.6</ele>
      </trkpt>
      <trkpt lat="50.37471" lon="5.86559">
        <ele>330.7</ele>
      </trkpt>
      <trkpt lat="50.37452" lon="5.8648">
        <ele>336.3</ele>
      </trkpt>
      <trkpt lat="50.3742" lon="5.86322">
        <ele>348.5</ele>
      </trkpt>
      <trkpt lat="50.37417" lon="5.86254">
        <ele>352.9</ele>
      </trkpt>
      <trkpt lat="50.37432" lon="5.86099">
        <ele>362.4</ele>
      </trkpt>
      <trkpt lat="50.37436" lon="5.85955">
        <ele>370.2</ele>
      </trkpt>
      <trkpt lat="50.37468" lon="5.85749">
        <ele>380.5</ele>
      </trkpt>
      <trkpt lat="50.37529" lon="5.85573">
        <ele>389.1</ele>
      </trkpt>
      <trkpt lat="50.37564" lon="5.85473">
        <ele>393.6</ele>
      </trkpt>
      <trkpt lat="50.37575" lon="5.85359">
        <ele>397.5</ele>
      </trkpt>
      <trkpt lat="50.37575" lon="5.8534">
        <ele>398.9</ele>
      </trkpt>
      <trkpt lat="50.37555" lon="5.85275">
        <ele>406.3</ele>
      </trkpt>
      <trkpt lat="50.37547" lon="5.8523">
        <ele>410.6</ele>
      </trkpt>
      <trkpt lat="50.37556" lon="5.8513">
        <ele>419.6</ele>
      </trkpt>
      <trkpt lat="50.37557" lon="5.85018">
        <ele>425.2</ele>
      </trkpt>
      <trkpt lat="50.37556" lon="5.84987">
        <ele>427</ele>
      </trkpt>
      <trkpt lat="50.37561" lon="5.8493">
        <ele>431</ele>
      </trkpt>
      <trkpt lat="50.37567" lon="5.84792">
        <ele>440.8</ele>
      </trkpt>
      <trkpt lat="50.37574" lon="5.84622">
        <ele>451.4</ele>
      </trkpt>
      <trkpt lat="50.37582" lon="5.84573">
        <ele>453.4</ele>
      </trkpt>
      <trkpt lat="50.37626" lon="5.84464">
        <ele>457.3</ele>
      </trkpt>
      <trkpt lat="50.37672" lon="5.84358">
        <ele>462.3</ele>
      </trkpt>
      <trkpt lat="50.37681" lon="5.84336">
        <ele>463.4</ele>
      </trkpt>
      <trkpt lat="50.37699" lon="5.8433">
        <ele>464.5</ele>
      </trkpt>
      <trkpt lat="50.37689" lon="5.84232">
        <ele>463.8</ele>
      </trkpt>
      <trkpt lat="50.37693" lon="5.84154">
        <ele>464</ele>
      </trkpt>
      <trkpt lat="50.37726" lon="5.83949">
        <ele>466.3</ele>
      </trkpt>
      <trkpt lat="50.37763" lon="5.83764">
        <ele>468.4</ele>
      </trkpt>
      <trkpt lat="50.37779" lon="5.83644">
        <ele>470.1</ele>
      </trkpt>
      <trkpt lat="50.37771" lon="5.83499">
        <ele>472.1</ele>
      </trkpt>
      <trkpt lat="50.37749" lon="5.83277">
        <ele>476</ele>
      </trkpt>
      <trkpt lat="50.37729" lon="5.83066">
        <ele>478.6</ele>
      </trkpt>
      <trkpt lat="50.37702" lon="5.82834">
        <ele>482.5</ele>
      </trkpt>
      <trkpt lat="50.37676" lon="5.82664">
        <ele>484.1</ele>
      </trkpt>
      <trkpt lat="50.37648" lon="5.82469">
        <ele>485.3</ele>
      </trkpt>
      <trkpt lat="50.37625" lon="5.82314">
        <ele>484</ele>
      </trkpt>
      <trkpt lat="50.37606" lon="5.82232">
        <ele>483.3</ele>
      </trkpt>
      <trkpt lat="50.37553" lon="5.82084">
        <ele>483</ele>
      </trkpt>
      <trkpt lat="50.37522" lon="5.81999">
        <ele>484</ele>
      </trkpt>
      <trkpt lat="50.37488" lon="5.819">
        <ele>485</ele>
      </trkpt>
      <trkpt lat="50.37476" lon="5.81856">
        <ele>485.9</ele>
      </trkpt>
      <trkpt lat="50.37462" lon="5.81752">
        <ele>485</ele>
      </trkpt>
      <trkpt lat="50.37448" lon="5.81638">
        <ele>483.9</ele>
      </trkpt>
      <trkpt lat="50.37442" lon="5.81542">
        <ele>483</ele>
      </trkpt>
      <trkpt lat="50.37447" lon="5.81397">
        <ele>482</ele>
      </trkpt>
      <trkpt lat="50.37448" lon="5.81289">
        <ele>479.9</ele>
      </trkpt>
      <trkpt lat="50.37438" lon="5.81222">
        <ele>477.8</ele>
      </trkpt>
      <trkpt lat="50.37401" lon="5.81096">
        <ele>472.6</ele>
      </trkpt>
      <trkpt lat="50.37349" lon="5.80928">
        <ele>468.2</ele>
      </trkpt>
      <trkpt lat="50.37318" lon="5.80811">
        <ele>466.6</ele>
      </trkpt>
      <trkpt lat="50.37314" lon="5.80751">
        <ele>466</ele>
      </trkpt>
      <trkpt lat="50.37321" lon="5.80364">
        <ele>464.5</ele>
      </trkpt>
      <trkpt lat="50.3732" lon="5.79825">
        <ele>478.8</ele>
      </trkpt>
      <trkpt lat="50.37313" lon="5.79718">
        <ele>483.2</ele>
      </trkpt>
      <trkpt lat="50.373" lon="5.79669">
        <ele>484.7</ele>
      </trkpt>
      <trkpt lat="50.37157" lon="5.7932">
        <ele>487</ele>
      </trkpt>
      <trkpt lat="50.36959" lon="5.78832">
        <ele>488.5</ele>
      </trkpt>
      <trkpt lat="50.36883" lon="5.78667">
        <ele>489.2</ele>
      </trkpt>
      <trkpt lat="50.36824" lon="5.78553">
        <ele>490.3</ele>
      </trkpt>
      <trkpt lat="50.36796" lon="5.78502">
        <ele>491.3</ele>
      </trkpt>
      <trkpt lat="50.36792" lon="5.78497">
        <ele>491.4</ele>
      </trkpt>
      <trkpt lat="50.36823" lon="5.78469">
        <ele>489.6</ele>
      </trkpt>
    </trkseg>
  </trk>
</gpx>